Time;durP1;ratioP1;P1;durP2;ratioP2;P2;SDS_P1;SDS_P2;PMS_P1;PMS_P2;Temp;Humidity;BMP_temperature;BMP_pressure;BME280_temperature;BME280_humidity;BME280_pressure;Samples;Min_cycle;Max_cycle;Signal;HPM_P1;HPM_P2
2023/05/22 00:00:27;;;;;;;9.97;5.57;;;;;;;19.94;47.97;101245.72;4933444;29;20419;-69
2023/05/22 00:02:56;;;;;;;8.17;5.20;;;;;;;19.89;48.15;101242.91;4919493;29;20969;-72
2023/05/22 00:05:27;;;;;;;6.30;5.07;;;;;;;19.85;48.29;101245.31;4924322;29;21051;-70
2023/05/22 00:07:56;;;;;;;8.77;5.70;;;;;;;19.77;48.52;101247.69;4923732;29;20439;-71
2023/05/22 00:10:25;;;;;;;7.03;5.37;;;;;;;19.68;48.83;101246.47;4925116;29;20440;-71
2023/05/22 00:12:54;;;;;;;7.17;5.77;;;;;;;19.69;48.69;101248.13;4928324;29;20923;-71
2023/05/22 00:15:23;;;;;;;5.83;4.97;;;;;;;19.65;49.11;101249.75;4930251;29;20427;-70
2023/05/22 00:17:52;;;;;;;7.37;4.73;;;;;;;19.61;49.10;101241.16;4925751;29;21121;-71
2023/05/22 00:20:22;;;;;;;7.23;5.00;;;;;;;19.60;49.01;101241.44;4921535;29;20784;-71
2023/05/22 00:22:53;;;;;;;6.63;6.00;;;;;;;19.60;48.98;101238.69;4929439;29;20440;-71
2023/05/22 00:25:22;;;;;;;6.13;5.50;;;;;;;19.50;49.47;101239.38;4928772;29;20480;-70
2023/05/22 00:27:51;;;;;;;6.67;6.07;;;;;;;19.40;49.89;101237.28;4922911;29;20413;-69
2023/05/22 00:30:20;;;;;;;6.30;5.80;;;;;;;19.45;49.42;101231.06;4921729;29;20635;-71
2023/05/22 00:32:49;;;;;;;9.70;5.83;;;;;;;19.44;49.53;101226.66;4925533;29;20434;-70
2023/05/22 00:35:18;;;;;;;8.00;5.90;;;;;;;19.44;49.21;101224.75;4931048;29;20483;-71
2023/05/22 00:37:47;;;;;;;6.20;4.97;;;;;;;19.37;49.48;101225.94;4920129;29;20413;-71
2023/05/22 00:40:18;;;;;;;6.13;5.53;;;;;;;19.30;49.51;101223.41;4917242;29;20962;-69
2023/05/22 00:42:47;;;;;;;6.17;5.37;;;;;;;19.29;49.57;101223.66;4924388;29;20471;-71
2023/05/22 00:45:17;;;;;;;6.80;6.20;;;;;;;19.23;49.38;101233.72;4925325;29;20519;-71
2023/05/22 00:47:46;;;;;;;5.40;4.90;;;;;;;19.27;49.31;101225.78;4917154;29;20505;-71
2023/05/22 00:50:15;;;;;;;8.83;5.20;;;;;;;19.23;49.35;101222.75;4929607;29;20451;-69
2023/05/22 00:52:46;;;;;;;5.10;4.60;;;;;;;19.21;49.60;101219.44;4928369;29;20437;-69
2023/05/22 00:55:18;;;;;;;5.70;4.57;;;;;;;19.18;49.73;101222.66;4921657;29;20459;-69
2023/05/22 00:57:48;;;;;;;5.97;5.43;;;;;;;19.10;49.85;101223.09;4923243;29;20441;-70
2023/05/22 01:00:18;;;;;;;5.83;5.30;;;;;;;18.96;50.13;101221.78;4930399;29;20444;-70
2023/05/22 01:02:47;;;;;;;7.37;6.60;;;;;;;18.91;50.41;101221.69;4929322;29;20404;-71
2023/05/22 01:05:16;;;;;;;6.70;4.80;;;;;;;18.87;50.42;101224.09;4929743;29;20495;-71
2023/05/22 01:07:46;;;;;;;5.90;5.30;;;;;;;18.88;50.37;101225.75;4921245;29;20499;-69
2023/05/22 01:10:15;;;;;;;6.63;5.93;;;;;;;18.84;50.29;101218.25;4926488;29;20475;-69
2023/05/22 01:12:55;;;;;;;6.57;5.30;;;;;;;18.85;50.33;101223.50;4924999;29;20499;-69
2023/05/22 01:15:32;;;;;;;10.20;6.30;;;;;;;18.71;50.70;101218.59;4928330;29;20689;-72
2023/05/22 01:18:11;;;;;;;5.53;5.00;;;;;;;18.65;50.89;101218.50;4930395;29;20411;-71
2023/05/22 01:20:48;;;;;;;5.67;5.17;;;;;;;18.62;50.70;101227.25;4926409;29;20453;-69
2023/05/22 01:23:46;;;;;;;6.40;5.77;;;;;;;18.58;50.95;101217.03;4921392;29;20531;-71
2023/05/22 01:27:03;;;;;;;8.57;6.20;;;;;;;18.49;51.29;101213.78;4919438;29;20564;-72
2023/05/22 01:29:46;;;;;;;5.43;4.93;;;;;;;18.39;51.70;101208.16;4896095;29;20882;-72
2023/05/22 01:32:20;;;;;;;8.80;5.93;;;;;;;18.35;51.65;101212.44;4917972;29;20930;-70
2023/05/22 01:34:56;;;;;;;9.63;6.07;;;;;;;18.35;51.78;101206.97;4934452;29;20473;-70
2023/05/22 01:37:25;;;;;;;6.93;5.73;;;;;;;18.36;51.96;101205.06;4925292;29;21014;-71
2023/05/22 01:39:56;;;;;;;6.40;5.80;;;;;;;18.22;52.07;101213.56;4925111;29;20622;-70
2023/05/22 01:42:25;;;;;;;7.10;5.73;;;;;;;18.16;52.10;101200.03;4932954;29;20408;-71
2023/05/22 01:44:54;;;;;;;6.30;5.67;;;;;;;18.13;52.53;101212.31;4923950;29;20965;-71
2023/05/22 01:47:25;;;;;;;6.43;5.83;;;;;;;17.98;52.92;101201.06;4921611;29;20454;-72
2023/05/22 01:49:54;;;;;;;8.33;5.00;;;;;;;17.92;53.40;101209.41;4921226;29;20438;-70
2023/05/22 01:52:29;;;;;;;6.10;5.00;;;;;;;17.86;53.62;101210.41;4930893;29;20522;-70
2023/05/22 01:55:06;;;;;;;6.63;6.03;;;;;;;17.75;53.96;101212.06;4924330;29;20439;-72
2023/05/22 01:57:45;;;;;;;5.80;5.30;;;;;;;17.64;54.29;101211.03;4924068;29;20893;-69
2023/05/22 02:00:17;;;;;;;7.70;5.30;;;;;;;17.66;54.03;101205.31;4930387;29;21201;-70
2023/05/22 02:02:53;;;;;;;8.30;5.50;;;;;;;17.67;54.02;101207.00;4930814;29;20839;-71
2023/05/22 02:05:24;;;;;;;5.20;4.70;;;;;;;17.62;54.26;101210.41;4940999;29;20506;-72
2023/05/22 02:07:58;;;;;;;7.13;5.27;;;;;;;17.60;54.22;101212.59;4921411;29;20499;-71
2023/05/22 02:10:29;;;;;;;4.97;4.40;;;;;;;17.55;54.46;101206.97;4923687;29;20406;-70
2023/05/22 02:13:01;;;;;;;7.83;4.97;;;;;;;17.53;54.43;101209.09;4932717;29;20443;-71
2023/05/22 02:15:30;;;;;;;6.30;5.70;;;;;;;17.48;54.47;101203.50;4933485;29;20944;-72
2023/05/22 02:18:02;;;;;;;6.13;5.47;;;;;;;17.47;54.36;101201.88;4944792;29;20867;-71
2023/05/22 02:20:31;;;;;;;5.67;5.10;;;;;;;17.37;54.60;101201.66;4931540;29;20816;-69
2023/05/22 02:23:01;;;;;;;5.83;5.23;;;;;;;17.36;54.39;101205.44;4931022;29;20416;-73
2023/05/22 02:25:30;;;;;;;8.40;5.80;;;;;;;17.35;54.30;101199.13;4922299;29;20434;-71
2023/05/22 02:28:00;;;;;;;5.93;5.10;;;;;;;17.37;54.09;101201.66;4921226;29;20423;-72
2023/05/22 02:30:29;;;;;;;5.83;5.23;;;;;;;17.32;54.20;101205.09;4934293;29;20514;-72
2023/05/22 02:33:04;;;;;;;6.20;5.53;;;;;;;17.32;54.06;101198.81;4931421;29;20415;-70
2023/05/22 02:35:33;;;;;;;5.17;4.67;;;;;;;17.26;54.20;101199.75;4930501;29;20489;-70
2023/05/22 02:38:02;;;;;;;11.30;5.80;;;;;;;17.30;54.04;101198.19;4921690;29;20427;-71
2023/05/22 02:40:32;;;;;;;7.40;5.63;;;;;;;17.28;54.10;101205.81;4921896;29;20419;-68
2023/05/22 02:43:01;;;;;;;10.80;5.17;;;;;;;17.24;54.19;101205.44;4927998;29;20556;-71
2023/05/22 02:45:30;;;;;;;7.43;5.40;;;;;;;17.28;54.15;101205.81;4928432;29;20465;-70
2023/05/22 02:48:02;;;;;;;7.07;5.63;;;;;;;17.17;54.31;101207.47;4929562;29;20454;-69
2023/05/22 02:50:33;;;;;;;8.50;5.90;;;;;;;17.10;54.48;101194.97;4930920;29;20447;-70
2023/05/22 02:53:02;;;;;;;5.87;5.37;;;;;;;17.10;54.40;101200.44;4935060;29;20409;-70
2023/05/22 02:55:31;;;;;;;7.00;5.57;;;;;;;17.08;54.48;101197.97;4923409;29;20446;-71
2023/05/22 02:58:00;;;;;;;6.67;6.00;;;;;;;17.06;54.56;101191.06;4923924;29;20863;-72
2023/05/22 03:00:30;;;;;;;7.90;4.40;;;;;;;17.00;54.71;101194.75;4931004;29;20484;-70
2023/05/22 03:02:59;;;;;;;6.17;5.27;;;;;;;17.01;54.68;101191.78;4924673;29;20497;-70
2023/05/22 03:05:30;;;;;;;5.10;4.60;;;;;;;16.92;54.96;101194.03;4931017;29;20434;-71
2023/05/22 03:07:59;;;;;;;5.40;4.90;;;;;;;16.90;55.14;101190.69;4920206;29;20504;-69
2023/05/22 03:10:28;;;;;;;5.83;5.30;;;;;;;16.85;55.24;101181.53;4939889;28;20416;-69
2023/05/22 03:12:57;;;;;;;4.77;4.37;;;;;;;16.83;55.28;101181.78;4930499;29;20451;-73
2023/05/22 03:15:27;;;;;;;7.87;5.03;;;;;;;16.77;55.46;101184.63;4924562;29;20507;-70
2023/05/22 03:17:59;;;;;;;7.47;4.90;;;;;;;16.80;55.46;101184.97;4924107;29;20423;-71
2023/05/22 03:20:30;;;;;;;12.17;7.53;;;;;;;16.73;55.74;101184.28;4928048;29;20496;-72
2023/05/22 03:22:59;;;;;;;5.83;4.97;;;;;;;16.75;55.66;101175.84;4932423;29;20447;-69
2023/05/22 03:25:28;;;;;;;7.40;5.50;;;;;;;16.81;55.54;101181.19;4919582;29;20632;-72
2023/05/22 03:27:57;;;;;;;6.87;5.80;;;;;;;16.81;55.42;101170.25;4926652;29;20457;-72
2023/05/22 03:30:28;;;;;;;7.33;6.57;;;;;;;16.87;55.47;101177.50;4923810;29;20835;-70
2023/05/22 03:33:10;;;;;;;8.00;5.37;;;;;;;16.87;55.48;101177.50;4924034;29;20482;-72
2023/05/22 03:35:43;;;;;;;6.87;6.27;;;;;;;16.87;55.66;101174.78;4926842;29;20467;-72
2023/05/22 03:38:12;;;;;;;6.33;5.70;;;;;;;16.99;55.48;101166.59;4929034;29;20536;-72
2023/05/22 03:40:41;;;;;;;7.97;5.43;;;;;;;17.09;55.12;101168.72;4931228;29;20417;-71
2023/05/22 03:43:11;;;;;;;6.53;5.30;;;;;;;17.13;54.97;101167.19;4929175;29;20523;-74
2023/05/22 03:45:40;;;;;;;6.93;5.43;;;;;;;17.14;54.76;101169.66;4933150;29;20524;-72
2023/05/22 03:48:10;;;;;;;6.77;5.87;;;;;;;17.20;54.85;101173.34;4933393;29;20769;-69
2023/05/22 03:50:39;;;;;;;8.20;5.30;;;;;;;17.27;54.72;101172.16;4932067;29;20442;-70
2023/05/22 03:53:10;;;;;;;9.90;7.00;;;;;;;17.29;54.58;101171.91;4920515;29;20473;-71
2023/05/22 03:55:39;;;;;;;7.10;6.40;;;;;;;17.51;54.36;101169.38;4939869;29;20472;-72
2023/05/22 03:58:08;;;;;;;6.47;5.27;;;;;;;17.61;53.85;101170.47;4943600;29;20449;-71
2023/05/22 04:00:37;;;;;;;8.27;6.40;;;;;;;17.81;53.56;101172.78;4938447;29;20421;-72
2023/05/22 04:03:11;;;;;;;6.77;6.13;;;;;;;17.94;53.20;101174.41;4931400;29;20950;-71
2023/05/22 04:05:40;;;;;;;9.10;5.70;;;;;;;18.38;52.00;101172.78;4925299;29;20480;-70
2023/05/22 04:08:12;;;;;;;5.93;5.33;;;;;;;18.64;51.00;101175.72;4931327;29;20429;-70
2023/05/22 04:10:45;;;;;;;6.40;5.80;;;;;;;19.08;50.10;101171.22;4935486;29;20894;-70
2023/05/22 04:13:14;;;;;;;6.63;5.87;;;;;;;19.68;48.57;101169.59;4924571;29;20860;-71
2023/05/22 04:15:44;;;;;;;12.67;5.70;;;;;;;20.41;46.82;101170.97;4933171;29;20495;-72
2023/05/22 04:18:14;;;;;;;8.20;5.90;;;;;;;20.62;46.29;101175.59;4942268;29;20424;-71
2023/05/22 04:20:43;;;;;;;10.10;5.97;;;;;;;20.67;46.05;101167.38;4938412;29;20438;-70
2023/05/22 04:23:17;;;;;;;5.97;5.47;;;;;;;21.27;45.06;101163.41;4930154;29;20493;-70
2023/05/22 04:25:46;;;;;;;10.70;6.07;;;;;;;21.64;43.81;101172.41;4925258;29;20449;-70
2023/05/22 04:28:17;;;;;;;6.10;5.47;;;;;;;21.75;43.58;101174.13;4934768;29;20841;-71
2023/05/22 04:30:47;;;;;;;11.93;8.17;;;;;;;21.25;44.48;101175.50;4932183;29;20403;-71
2023/05/22 04:33:16;;;;;;;6.73;5.80;;;;;;;20.85;45.46;101169.72;4932466;29;20469;-73
2023/05/22 04:35:47;;;;;;;9.33;7.10;;;;;;;20.73;46.12;101180.06;4931877;29;20503;-72
2023/05/22 04:38:17;;;;;;;8.10;6.43;;;;;;;20.78;45.94;101171.84;4927635;29;20412;-71
2023/05/22 04:40:47;;;;;;;6.87;6.27;;;;;;;20.62;46.19;101172.84;4931173;29;20437;-71
2023/05/22 04:43:17;;;;;;;8.97;7.10;;;;;;;21.20;45.40;101178.22;4922009;29;20443;-70
2023/05/22 04:45:46;;;;;;;8.83;6.90;;;;;;;20.99;45.43;101175.59;4924769;29;20463;-71
2023/05/22 04:48:15;;;;;;;7.30;6.60;;;;;;;21.34;45.16;101175.03;4927198;29;20484;-70
2023/05/22 04:50:45;;;;;;;8.53;5.33;;;;;;;21.46;44.41;101170.13;4925465;29;20415;-70
2023/05/22 04:53:16;;;;;;;10.70;6.37;;;;;;;20.92;45.75;101173.06;4932429;29;20510;-72
2023/05/22 04:55:45;;;;;;;11.00;6.40;;;;;;;20.73;46.13;101177.31;4926427;29;20458;-71
2023/05/22 04:58:13;;;;;;;6.10;5.60;;;;;;;21.13;45.60;101174.03;4926723;29;20963;-71
2023/05/22 05:00:43;;;;;;;10.27;6.13;;;;;;;21.45;44.71;101168.47;4969802;23;21129;-68
2023/05/22 05:03:13;;;;;;;22.13;6.37;;;;;;;21.13;44.88;101172.16;4930454;29;20943;-67
2023/05/22 05:05:43;;;;;;;9.07;6.03;;;;;;;20.79;45.78;101168.00;4932117;29;20435;-70
2023/05/22 05:08:12;;;;;;;7.43;5.60;;;;;;;20.27;46.93;101168.63;4927147;29;20441;-67
2023/05/22 05:10:43;;;;;;;8.33;6.30;;;;;;;19.89;48.12;101166.84;4925824;29;20459;-67
2023/05/22 05:13:12;;;;;;;8.67;6.13;;;;;;;19.81;48.48;101164.53;4922824;29;20477;-68
2023/05/22 05:15:41;;;;;;;7.23;6.53;;;;;;;19.79;48.70;101171.38;4924125;29;20471;-68
2023/05/22 05:18:11;;;;;;;7.10;6.40;;;;;;;19.94;48.22;101174.31;4928477;29;20419;-67
2023/05/22 05:20:40;;;;;;;7.67;6.23;;;;;;;19.83;48.33;101167.88;4930099;29;20425;-67
2023/05/22 05:23:10;;;;;;;7.97;6.73;;;;;;;19.77;48.50;101168.88;4927017;29;20420;-67
2023/05/22 05:25:39;;;;;;;7.13;6.47;;;;;;;19.63;49.09;101172.28;4931922;29;20897;-67
2023/05/22 05:28:10;;;;;;;9.50;6.50;;;;;;;19.69;49.15;101174.00;4923775;29;20901;-67
2023/05/22 05:30:41;;;;;;;7.43;6.00;;;;;;;19.39;50.13;101180.72;4926000;29;20455;-68
2023/05/22 05:33:23;;;;;;;9.93;6.37;;;;;;;19.33;50.49;101181.72;4924521;29;20895;-67
2023/05/22 05:36:25;;;;;;;7.70;7.00;;;;;;;19.16;51.08;101183.69;4915309;29;20811;-69
2023/05/22 05:38:57;;;;;;;7.30;6.37;;;;;;;19.14;51.07;101177.59;4924128;29;20762;-68
2023/05/22 05:41:27;;;;;;;8.87;6.60;;;;;;;19.25;51.15;101182.19;4927390;29;20496;-65
2023/05/22 05:44:04;;;;;;;7.33;6.67;;;;;;;19.35;50.65;101182.31;4932255;29;20445;-69
2023/05/22 05:46:34;;;;;;;8.27;6.67;;;;;;;19.28;51.11;101187.16;4948295;29;20407;-68
2023/05/22 05:49:09;;;;;;;9.17;6.97;;;;;;;19.43;50.90;101178.28;4926250;29;20459;-68
2023/05/22 05:51:41;;;;;;;8.27;6.80;;;;;;;19.49;50.84;101186.38;4928566;29;20438;-69
2023/05/22 05:54:11;;;;;;;11.73;6.40;;;;;;;19.71;50.29;101180.06;4933085;29;20454;-68
2023/05/22 05:56:40;;;;;;;8.93;7.50;;;;;;;19.87;49.78;101187.41;4928462;29;20420;-69
2023/05/22 05:59:11;;;;;;;9.27;6.90;;;;;;;20.43;49.36;101177.06;4924443;29;21483;-66
2023/05/22 06:01:43;;;;;;;12.93;7.10;;;;;;;20.48;48.83;101182.59;4937986;29;20407;-69
2023/05/22 06:04:19;;;;;;;7.53;6.63;;;;;;;20.27;49.02;101187.88;4931010;29;20485;-68
2023/05/22 06:06:54;;;;;;;7.07;5.83;;;;;;;19.83;49.93;101180.78;4930897;29;20420;-70
2023/05/22 06:09:31;;;;;;;6.83;6.00;;;;;;;19.80;50.17;101173.84;4927440;29;20476;-68
2023/05/22 06:12:20;;;;;;;8.93;6.77;;;;;;;20.10;49.82;101178.88;4933459;29;20935;-69
2023/05/22 06:14:50;;;;;;;7.60;6.20;;;;;;;20.09;49.97;101179.16;4929885;29;20489;-69
2023/05/22 06:17:20;;;;;;;9.50;6.47;;;;;;;20.06;49.89;101177.72;4927897;29;20429;-68
2023/05/22 06:19:50;;;;;;;7.80;6.10;;;;;;;19.92;50.50;101176.47;4924502;29;20453;-69
2023/05/22 06:22:19;;;;;;;7.60;6.90;;;;;;;19.94;50.72;101175.13;4933503;29;20829;-70
2023/05/22 06:24:51;;;;;;;8.50;6.60;;;;;;;20.30;50.07;101170.88;4927717;29;20533;-68
2023/05/22 06:27:22;;;;;;;7.47;6.60;;;;;;;20.36;50.05;101171.75;4931512;29;20510;-69
2023/05/22 06:29:53;;;;;;;8.80;7.17;;;;;;;20.52;49.60;101175.50;4929564;29;20415;-69
2023/05/22 06:32:23;;;;;;;8.20;6.63;;;;;;;20.59;49.76;101176.09;4946148;28;20532;-68
2023/05/22 06:34:54;;;;;;;8.40;7.00;;;;;;;20.73;49.56;101172.63;4937384;29;20488;-68
2023/05/22 06:37:23;;;;;;;11.70;7.17;;;;;;;20.74;49.15;101171.56;4933947;29;20444;-69
2023/05/22 06:39:53;;;;;;;7.93;6.90;;;;;;;20.74;49.56;101173.47;4932457;29;20610;-70
2023/05/22 06:42:32;;;;;;;8.07;7.37;;;;;;;20.78;49.16;101166.34;4923724;29;20445;-68
2023/05/22 06:45:22;;;;;;;8.70;6.43;;;;;;;20.81;49.45;101168.59;4926648;29;20475;-68
2023/05/22 06:48:16;;;;;;;10.23;7.40;;;;;;;20.68;49.80;101166.25;4928278;29;20459;-67
2023/05/22 06:51:05;;;;;;;13.03;6.80;;;;;;;21.07;49.13;101173.16;4935939;29;20561;-68
2023/05/22 06:53:34;;;;;;;7.63;6.17;;;;;;;21.20;48.59;101167.22;4935264;29;20441;-69
2023/05/22 06:56:03;;;;;;;8.77;7.90;;;;;;;20.94;49.30;101172.81;4937876;29;20428;-68
2023/05/22 06:59:05;;;;;;;10.30;7.10;;;;;;;21.32;48.90;101169.78;4928164;29;20454;-69
2023/05/22 07:02:01;;;;;;;8.53;7.30;;;;;;;21.63;47.82;101168.84;4931969;29;20413;-66
2023/05/22 07:04:57;;;;;;;9.43;7.20;;;;;;;21.83;47.71;101159.00;4925293;29;21048;-68
2023/05/22 07:07:41;;;;;;;22.60;8.37;;;;;;;21.56;47.91;101167.41;4932618;29;20811;-68
2023/05/22 07:10:11;;;;;;;9.00;7.20;;;;;;;21.66;48.45;101172.97;4931876;29;20442;-68
2023/05/22 07:12:40;;;;;;;8.83;7.60;;;;;;;21.62;48.34;101174.63;4925912;29;20447;-68
2023/05/22 07:15:13;;;;;;;10.73;7.37;;;;;;;21.70;48.69;101163.06;4930662;29;20588;-69
2023/05/22 07:17:49;;;;;;;9.30;8.37;;;;;;;21.63;48.50;101170.78;4936710;29;20846;-68
2023/05/22 07:20:18;;;;;;;9.27;6.70;;;;;;;21.54;48.91;101166.88;4929207;29;20825;-67
2023/05/22 07:23:03;;;;;;;9.63;6.83;;;;;;;21.73;48.87;101164.47;4935293;29;20437;-67
2023/05/22 07:25:32;;;;;;;8.70;7.00;;;;;;;21.67;48.57;101158.94;4933814;29;20863;-69
2023/05/22 07:28:07;;;;;;;9.60;8.57;;;;;;;21.37;49.22;101155.22;4930199;29;20419;-69
2023/05/22 07:30:41;;;;;;;7.93;7.13;;;;;;;21.32;49.74;101157.94;4934145;29;20428;-69
2023/05/22 07:33:12;;;;;;;12.67;7.30;;;;;;;21.41;49.73;101156.31;4932646;29;20423;-69
2023/05/22 07:35:42;;;;;;;8.27;7.50;;;;;;;21.47;49.99;101160.78;4925973;29;20453;-69
2023/05/22 07:38:11;;;;;;;7.57;6.80;;;;;;;21.70;49.14;101157.56;4924014;29;20425;-67
2023/05/22 07:40:44;;;;;;;8.00;7.30;;;;;;;22.05;48.88;101157.72;4930405;29;20517;-69
2023/05/22 07:43:14;;;;;;;9.80;8.83;;;;;;;22.25;48.41;101156.94;4924054;29;20416;-67
2023/05/22 07:45:43;;;;;;;9.97;8.00;;;;;;;22.25;48.02;101164.38;4931850;29;20909;-68
2023/05/22 07:48:17;;;;;;;9.30;8.50;;;;;;;22.09;48.39;101158.81;4929814;29;20451;-68
2023/05/22 07:50:46;;;;;;;8.50;7.60;;;;;;;22.07;48.69;101163.78;4928660;29;20436;-69
2023/05/22 07:53:16;;;;;;;10.60;8.17;;;;;;;22.50;48.14;101159.72;4929576;29;20457;-73
2023/05/22 07:55:49;;;;;;;9.27;8.47;;;;;;;22.89;47.03;101162.78;4926143;29;20448;-68
2023/05/22 07:58:22;;;;;;;9.53;7.30;;;;;;;22.80;46.79;101158.91;4928741;29;20791;-69
2023/05/22 08:00:52;;;;;;;10.43;7.37;;;;;;;22.94;47.14;101153.69;4929924;29;20460;-68
2023/05/22 08:03:23;;;;;;;8.17;7.40;;;;;;;22.96;46.68;101155.03;4931807;29;20403;-68
2023/05/22 08:05:52;;;;;;;7.47;6.87;;;;;;;23.12;46.26;101150.31;4925377;29;20457;-69
2023/05/22 08:08:21;;;;;;;11.90;7.23;;;;;;;23.10;46.20;101151.69;4930034;29;20472;-67
2023/05/22 08:10:50;;;;;;;9.63;7.70;;;;;;;23.17;46.60;101152.25;4928797;29;20433;-68
2023/05/22 08:13:31;;;;;;;13.03;7.80;;;;;;;23.39;46.16;101152.72;4926306;29;20464;-69
2023/05/22 08:16:01;;;;;;;10.50;7.53;;;;;;;23.53;45.39;101150.25;4932760;29;20439;-71
2023/05/22 08:18:31;;;;;;;12.00;7.07;;;;;;;23.78;44.44;101147.34;4926412;29;20444;-69
2023/05/22 08:21:00;;;;;;;13.40;7.60;;;;;;;24.30;44.24;101154.28;4930366;29;20981;-68
2023/05/22 08:23:38;;;;;;;8.00;7.30;;;;;;;24.55;43.24;101141.06;4933016;29;20440;-69
2023/05/22 08:26:08;;;;;;;12.07;7.73;;;;;;;24.43;43.28;101142.56;4933031;29;20461;-68
2023/05/22 08:28:40;;;;;;;8.30;7.00;;;;;;;24.22;43.62;101141.88;4926324;29;20441;-68
2023/05/22 08:31:10;;;;;;;9.70;7.50;;;;;;;24.16;43.71;101143.84;4925371;29;20443;-67
2023/05/22 08:33:40;;;;;;;6.47;5.53;;;;;;;23.89;43.95;101134.31;4928448;29;20418;-68
2023/05/22 08:36:11;;;;;;;8.17;6.60;;;;;;;24.03;43.61;101138.94;4931094;29;20488;-69
2023/05/22 08:38:41;;;;;;;6.90;6.30;;;;;;;24.05;43.50;101136.72;4940144;29;20858;-70
2023/05/22 08:41:11;;;;;;;7.00;6.30;;;;;;;24.21;43.16;101134.69;4933013;29;20499;-68
2023/05/22 08:43:40;;;;;;;7.60;6.83;;;;;;;24.35;42.82;101135.69;4931151;29;20464;-67
2023/05/22 08:46:10;;;;;;;8.63;6.57;;;;;;;24.62;42.22;101130.50;4925083;29;20555;-70
2023/05/22 08:48:41;;;;;;;7.20;5.60;;;;;;;24.58;42.39;101134.97;4932261;29;20483;-69
2023/05/22 08:51:18;;;;;;;9.53;7.00;;;;;;;24.87;42.11;101131.41;4932033;29;20891;-67
2023/05/22 08:53:51;;;;;;;13.47;6.87;;;;;;;25.29;40.91;101128.75;4928646;29;20881;-67
2023/05/22 08:56:21;;;;;;;11.67;7.50;;;;;;;25.23;40.62;101129.91;4924342;29;20517;-66
2023/05/22 08:58:51;;;;;;;7.00;5.93;;;;;;;24.96;41.10;101132.44;4931492;29;20465;-67
2023/05/22 09:01:20;;;;;;;8.77;6.33;;;;;;;25.21;40.63;101125.81;4930131;29;20440;-67
2023/05/22 09:03:52;;;;;;;10.63;6.10;;;;;;;24.91;41.11;101121.41;4928778;29;20788;-68
2023/05/22 09:06:21;;;;;;;12.93;5.83;;;;;;;25.05;41.09;101122.38;4931069;29;20483;-67
2023/05/22 09:08:50;;;;;;;8.33;5.53;;;;;;;25.00;40.70;101114.13;4927638;29;20449;-69
2023/05/22 09:11:19;;;;;;;9.13;6.13;;;;;;;25.34;40.06;101112.06;4935620;29;20848;-68
2023/05/22 09:13:50;;;;;;;14.00;5.80;;;;;;;25.45;39.84;101115.53;4936585;29;20863;-67
2023/05/22 09:16:20;;;;;;;6.20;5.60;;;;;;;26.04;39.21;101112.28;4935016;29;20483;-66
2023/05/22 09:18:50;;;;;;;6.33;5.47;;;;;;;26.07;38.59;101122.75;4939608;29;20412;-68
2023/05/22 09:21:20;;;;;;;7.73;6.17;;;;;;;25.88;38.69;101110.84;4930641;29;20432;-65
2023/05/22 09:24:01;;;;;;;7.93;5.80;;;;;;;25.66;39.22;101113.38;4933822;29;20810;-68
2023/05/22 09:26:31;;;;;;;7.53;6.13;;;;;;;25.77;39.56;101106.56;4932177;29;20995;-67
2023/05/22 09:29:01;;;;;;;6.37;5.53;;;;;;;25.73;39.44;101111.03;4936305;29;21041;-68
2023/05/22 09:31:30;;;;;;;7.00;5.93;;;;;;;25.81;39.01;101102.88;4932092;29;20507;-69
2023/05/22 09:34:01;;;;;;;6.63;4.83;;;;;;;25.53;39.02;101107.38;4933017;29;20843;-67
2023/05/22 09:36:35;;;;;;;5.93;5.37;;;;;;;25.48;39.48;101099.16;4936171;29;20479;-69
2023/05/22 09:39:05;;;;;;;6.57;5.97;;;;;;;25.52;39.64;101099.38;4933411;29;20846;-68
2023/05/22 09:41:36;;;;;;;7.20;5.40;;;;;;;25.13;39.77;101091.25;4935070;29;20447;-67
2023/05/22 09:44:13;;;;;;;7.43;5.83;;;;;;;25.06;39.99;101090.78;4933202;29;20428;-67
2023/05/22 09:46:44;;;;;;;6.20;5.13;;;;;;;25.33;40.01;101093.78;4935189;29;20433;-67
2023/05/22 09:49:15;;;;;;;6.60;5.23;;;;;;;25.56;40.10;101099.66;4932636;29;20439;-67
2023/05/22 09:51:47;;;;;;;10.10;5.60;;;;;;;25.95;39.43;101091.88;4938398;29;20800;-68
2023/05/22 09:54:18;;;;;;;6.20;5.60;;;;;;;26.09;38.60;101087.25;4935737;29;20433;-68
2023/05/22 09:56:49;;;;;;;10.20;5.70;;;;;;;25.82;39.09;101092.63;4934879;29;20433;-68
2023/05/22 09:59:22;;;;;;;6.43;5.00;;;;;;;25.67;39.29;101090.88;4930926;29;20471;-67
2023/05/22 10:01:52;;;;;;;8.20;6.47;;;;;;;26.18;38.86;101088.22;4927640;29;20437;-69
2023/05/22 10:04:24;;;;;;;5.77;5.27;;;;;;;25.93;38.68;101085.81;4934531;29;20437;-68
2023/05/22 10:06:57;;;;;;;6.83;5.80;;;;;;;25.42;39.29;101089.25;4933322;29;20467;-68
2023/05/22 10:09:32;;;;;;;10.57;6.90;;;;;;;25.39;39.84;101086.25;4931146;29;20475;-69
2023/05/22 10:12:06;;;;;;;5.57;4.47;;;;;;;25.72;39.27;101093.59;4936500;29;20783;-67
2023/05/22 10:14:36;;;;;;;5.83;5.23;;;;;;;25.65;38.91;101084.00;4932569;29;20519;-68
2023/05/22 10:17:06;;;;;;;6.80;6.10;;;;;;;25.46;39.14;101084.75;4938389;28;20433;-68
2023/05/22 10:19:37;;;;;;;6.20;5.57;;;;;;;25.47;39.13;101086.41;4936758;29;20492;-68
2023/05/22 10:22:13;;;;;;;8.00;5.33;;;;;;;25.63;39.20;101073.22;4936577;29;20529;-66
2023/05/22 10:24:45;;;;;;;9.93;5.23;;;;;;;25.83;39.06;101086.78;4936196;29;22269;-68
2023/05/22 10:27:15;;;;;;;7.50;6.30;;;;;;;25.74;39.08;101083.03;4936584;29;21019;-69
2023/05/22 10:29:58;;;;;;;7.90;6.40;;;;;;;25.80;38.58;101067.16;4936385;29;20897;-67
2023/05/22 10:32:40;;;;;;;7.33;6.63;;;;;;;25.59;39.32;101076.88;4935034;29;20583;-67
2023/05/22 10:35:20;;;;;;;6.50;5.77;;;;;;;25.57;38.92;101068.84;4933331;29;20517;-67
2023/05/22 10:37:56;;;;;;;4.93;4.50;;;;;;;25.57;38.80;101073.56;4931973;29;20432;-67
2023/05/22 10:40:30;;;;;;;6.87;5.90;;;;;;;25.74;38.91;101063.63;4938946;29;20929;-67
2023/05/22 10:43:00;;;;;;;7.60;5.60;;;;;;;26.36;38.66;101062.41;4935178;29;20435;-68
2023/05/22 10:45:30;;;;;;;8.30;5.60;;;;;;;26.22;37.61;101058.75;4933985;29;20465;-69
2023/05/22 10:48:04;;;;;;;7.00;5.23;;;;;;;26.34;37.62;101070.19;4927073;29;20488;-70
2023/05/22 10:50:35;;;;;;;6.87;6.17;;;;;;;26.46;37.45;101050.31;4931014;29;20532;-68
2023/05/22 10:53:20;;;;;;;6.30;5.80;;;;;;;26.80;36.30;101042.47;4933754;29;20464;-70
2023/05/22 10:55:50;;;;;;;6.10;5.40;;;;;;;26.49;36.18;101034.97;4930481;29;20464;-68
2023/05/22 10:58:27;;;;;;;6.80;5.33;;;;;;;26.09;36.81;101031.78;4930108;29;20811;-68
2023/05/22 11:01:13;;;;;;;6.47;5.83;;;;;;;26.06;37.03;101029.59;4926485;29;20453;-68
2023/05/22 11:03:53;;;;;;;5.10;4.70;;;;;;;25.98;37.26;101027.50;4936367;29;20523;-69
2023/05/22 11:06:38;;;;;;;5.40;4.43;;;;;;;25.82;36.97;101037.19;4931042;29;20449;-68
2023/05/22 11:09:21;;;;;;;7.87;5.17;;;;;;;25.98;37.10;101027.50;4931865;29;20428;-69
2023/05/22 11:12:15;;;;;;;6.10;5.50;;;;;;;25.84;36.49;101024.69;4926309;29;20496;-67
2023/05/22 11:14:48;;;;;;;7.33;4.70;;;;;;;26.28;36.61;101035.38;4938351;29;20457;-68
2023/05/22 11:17:21;;;;;;;10.50;7.07;;;;;;;26.50;35.96;101026.38;4940525;29;20505;-69
2023/05/22 11:19:59;;;;;;;10.70;5.20;;;;;;;26.59;35.74;101018.16;4939528;29;20471;-68
2023/05/22 11:22:38;;;;;;;13.37;5.57;;;;;;;26.19;36.05;101019.69;4938206;28;20432;-68
2023/05/22 11:25:15;;;;;;;6.87;5.30;;;;;;;26.23;36.03;101016.03;4934827;29;20493;-69
2023/05/22 11:27:45;;;;;;;8.50;4.97;;;;;;;26.08;35.84;101012.66;4934955;29;20453;-68
2023/05/22 11:30:15;;;;;;;5.47;4.90;;;;;;;25.98;35.59;101016.41;4937600;29;20500;-67
2023/05/22 11:32:46;;;;;;;8.83;5.17;;;;;;;26.35;35.31;101009.97;4935786;29;20503;-66
2023/05/22 11:35:17;;;;;;;6.23;4.47;;;;;;;26.26;34.79;101009.88;4934843;29;20752;-66
2023/05/22 11:37:48;;;;;;;8.57;4.90;;;;;;;26.36;34.86;101019.97;4936915;29;20458;-68
2023/05/22 11:40:20;;;;;;;5.77;4.57;;;;;;;26.42;34.76;101012.38;4934448;29;20504;-69
2023/05/22 11:42:49;;;;;;;5.13;4.60;;;;;;;26.66;33.65;101007.47;4934737;29;20539;-69
2023/05/22 11:45:18;;;;;;;4.60;3.80;;;;;;;26.51;33.24;100999.44;4937075;29;20884;-68
2023/05/22 11:47:48;;;;;;;8.40;4.80;;;;;;;26.49;33.61;101004.47;4935912;29;20432;-69